createdAt,value
2023-11-04T00:01:07.590Z,1.42
2023-11-04T00:03:41.927Z,1.58
2023-11-04T00:06:07.845Z,2.53
2023-11-04T00:08:33.784Z,1.88
2023-11-04T00:10:59.643Z,1.70
2023-11-04T00:13:25.400Z,1.95
2023-11-04T00:15:51.703Z,1.98
2023-11-04T00:18:17.676Z,1.65
2023-11-04T00:20:49.345Z,1.60
2023-11-04T00:23:18.280Z,2.13
2023-11-04T00:25:45.269Z,1.42
2023-11-04T00:28:11.077Z,1.77
2023-11-04T00:30:37.021Z,2.45
2023-11-04T00:33:02.920Z,1.80
2023-11-04T00:35:29.218Z,2.15
2023-11-04T00:37:55.039Z,1.83
2023-11-04T00:40:20.921Z,1.77
2023-11-04T00:42:47.482Z,1.63
2023-11-04T00:45:13.406Z,2.58
2023-11-04T00:47:39.487Z,2.28
2023-11-04T00:50:14.746Z,2.97
2023-11-04T00:52:46.315Z,1.58
2023-11-04T00:55:12.233Z,2.10
2023-11-04T00:57:38.808Z,2.22
2023-11-04T01:00:05.638Z,1.90
2023-11-04T01:02:31.496Z,1.73
2023-11-04T01:04:57.404Z,1.98
2023-11-04T01:07:23.242Z,1.95
2023-11-04T01:09:49.143Z,2.78
2023-11-04T01:12:15.027Z,1.65
2023-11-04T01:14:41.077Z,1.92
2023-11-04T01:17:07.216Z,1.50
2023-11-04T01:19:33.138Z,1.55
2023-11-04T01:21:59.062Z,1.88
2023-11-04T01:24:24.873Z,1.50
2023-11-04T01:26:53.478Z,2.58
2023-11-04T01:29:19.599Z,1.73
2023-11-04T01:31:51.504Z,2.83
2023-11-04T01:34:17.488Z,2.17
2023-11-04T01:36:43.553Z,1.70
2023-11-04T01:39:10.482Z,2.28
2023-11-04T01:41:36.367Z,1.85
2023-11-04T01:44:02.232Z,2.25
2023-11-04T01:46:28.420Z,1.60
2023-11-04T01:48:54.358Z,1.92
2023-11-04T01:51:20.822Z,2.50
2023-11-04T01:53:51.360Z,1.85
2023-11-04T01:56:19.658Z,2.08
2023-11-04T01:58:46.052Z,1.63
2023-11-04T02:01:12.956Z,1.75
2023-11-04T02:03:42.049Z,1.50
2023-11-04T02:06:08.096Z,2.45
2023-11-04T02:08:37.284Z,1.83
2023-11-04T02:11:04.043Z,2.13
2023-11-04T02:13:30.773Z,1.67
2023-11-04T02:15:56.751Z,1.88
2023-11-04T02:18:22.768Z,1.50
2023-11-04T02:20:49.304Z,1.60
2023-11-04T02:23:15.169Z,2.05
2023-11-04T02:25:40.972Z,2.13
2023-11-04T02:28:06.864Z,1.88
2023-11-04T02:30:32.716Z,2.78
2023-11-04T02:32:58.649Z,1.80
2023-11-04T02:35:24.489Z,1.50
2023-11-04T02:37:51.099Z,2.08
2023-11-04T02:40:16.937Z,1.95
2023-11-04T02:42:42.967Z,1.48
2023-11-04T02:45:10.719Z,1.55
2023-11-04T02:47:36.546Z,2.45
2023-11-04T02:50:02.425Z,1.80
2023-11-04T02:52:28.961Z,1.45
2023-11-04T02:54:54.990Z,2.13
2023-11-04T02:57:21.367Z,1.75
2023-11-04T02:59:47.295Z,1.90
2023-11-04T03:02:19.967Z,2.33
2023-11-04T03:04:45.864Z,2.00
2023-11-04T03:07:11.659Z,1.92
2023-11-04T03:09:37.446Z,1.73
2023-11-04T03:12:03.599Z,2.33
2023-11-04T03:14:29.510Z,2.05
2023-11-04T03:16:57.520Z,1.85
2023-11-04T03:19:23.638Z,1.88
2023-11-04T03:21:49.539Z,1.90
2023-11-04T03:24:15.395Z,2.17
2023-11-04T03:26:41.218Z,1.67
2023-11-04T03:29:07.078Z,2.00
2023-11-04T03:31:33.236Z,1.58
2023-11-04T03:34:05.327Z,2.10
2023-11-04T03:36:31.200Z,2.03
2023-11-04T03:38:57.078Z,2.00
2023-11-04T03:41:23.189Z,1.60
2023-11-04T03:43:51.265Z,2.30
2023-11-04T03:46:17.261Z,2.35
2023-11-04T03:48:43.436Z,2.22
2023-11-04T03:51:09.351Z,1.95
2023-11-04T03:53:35.575Z,2.08
2023-11-04T03:56:04.311Z,2.50
2023-11-04T03:58:30.135Z,2.60
2023-11-04T04:00:56.857Z,1.92
2023-11-04T04:03:25.863Z,1.40
2023-11-04T04:05:51.737Z,1.80
2023-11-04T04:08:17.585Z,1.85
2023-11-04T04:10:43.435Z,2.20
2023-11-04T04:13:09.279Z,2.75
2023-11-04T04:15:35.090Z,2.20
2023-11-04T04:18:01.110Z,1.77
2023-11-04T04:20:27.948Z,1.90
2023-11-04T04:22:53.778Z,2.05
2023-11-04T04:25:19.613Z,2.67
2023-11-04T04:27:45.435Z,2.83
2023-11-04T04:30:11.284Z,2.03
2023-11-04T04:32:37.233Z,2.67
2023-11-04T04:35:03.505Z,2.10
2023-11-04T04:37:30.532Z,2.85
2023-11-04T04:39:56.654Z,2.20
2023-11-04T04:42:22.676Z,2.08
2023-11-04T04:44:48.519Z,2.30
2023-11-04T04:47:14.446Z,2.13
2023-11-04T04:49:41.380Z,1.30
2023-11-04T04:52:07.301Z,1.50
2023-11-04T04:54:33.250Z,2.00
2023-11-04T04:56:59.221Z,1.50
2023-11-04T04:59:25.498Z,2.40
2023-11-04T05:02:03.379Z,1.70
2023-11-04T05:04:29.258Z,2.00
2023-11-04T05:06:55.197Z,1.52
2023-11-04T05:09:21.866Z,2.00
2023-11-04T05:11:47.961Z,3.03
2023-11-04T05:14:13.872Z,1.58
2023-11-04T05:16:39.900Z,1.58
2023-11-04T05:19:05.749Z,2.13
2023-11-04T05:21:31.855Z,2.38
2023-11-04T05:23:57.732Z,1.92
2023-11-04T05:26:23.592Z,1.30
2023-11-04T05:28:49.604Z,2.38
2023-11-04T05:31:15.439Z,2.22
2023-11-04T05:33:47.628Z,1.65
2023-11-04T05:36:14.210Z,2.08
2023-11-04T05:38:40.980Z,2.33
2023-11-04T05:41:07.443Z,1.67
2023-11-04T05:43:33.215Z,1.90
2023-11-04T05:45:59.031Z,1.75
2023-11-04T05:48:25.051Z,2.28
2023-11-04T05:50:51.073Z,1.73
2023-11-04T05:53:17.078Z,1.75
2023-11-04T05:55:42.936Z,2.00
2023-11-04T05:58:09.635Z,1.75
2023-11-04T06:00:36.730Z,2.58
2023-11-04T06:03:07.366Z,2.40
2023-11-04T06:05:34.097Z,2.15
2023-11-04T06:08:00.502Z,2.25
2023-11-04T06:10:26.401Z,1.65
2023-11-04T06:12:52.967Z,1.90
2023-11-04T06:15:19.035Z,2.42
2023-11-04T06:17:44.885Z,2.30
2023-11-04T06:20:10.954Z,3.20
2023-11-04T06:22:36.847Z,2.55
2023-11-04T06:25:03.650Z,2.38
2023-11-04T06:27:30.618Z,1.70
2023-11-04T06:29:56.443Z,1.75
2023-11-04T06:32:22.297Z,2.25
2023-11-04T06:34:49.288Z,1.83
2023-11-04T06:37:15.092Z,2.25
2023-11-04T06:39:40.896Z,1.58
2023-11-04T06:42:06.893Z,1.60
2023-11-04T06:44:35.866Z,2.50
2023-11-04T06:47:05.730Z,2.45
2023-11-04T06:49:31.676Z,2.13
2023-11-04T06:51:58.142Z,1.80
2023-11-04T06:54:24.053Z,1.70
2023-11-04T06:56:49.907Z,1.27
2023-11-04T06:59:17.809Z,2.00
2023-11-04T07:02:12.545Z,1.48
2023-11-04T07:04:38.373Z,2.45
2023-11-04T07:07:04.545Z,1.65
2023-11-04T07:09:34.974Z,2.03
2023-11-04T07:12:00.940Z,2.33
2023-11-04T07:14:26.747Z,1.83
2023-11-04T07:16:56.169Z,2.78
2023-11-04T07:19:22.074Z,2.45
2023-11-04T07:21:48.166Z,2.30
2023-11-04T07:24:14.100Z,1.92
2023-11-04T07:26:40.254Z,2.03
2023-11-04T07:29:07.133Z,2.53
2023-11-04T07:31:36.135Z,2.33
2023-11-04T07:34:05.413Z,2.10
2023-11-04T07:36:31.326Z,2.58
2023-11-04T07:38:57.928Z,2.03
2023-11-04T07:41:24.001Z,2.35
2023-11-04T07:43:51.121Z,2.40
2023-11-04T07:46:17.204Z,3.00
2023-11-04T07:48:43.198Z,2.75
2023-11-04T07:51:11.954Z,1.95
2023-11-04T07:53:37.955Z,2.20
2023-11-04T07:56:04.191Z,2.40
2023-11-04T07:58:30.035Z,1.70
2023-11-04T08:00:55.935Z,1.80
2023-11-04T08:03:31.388Z,2.35
2023-11-04T08:05:57.366Z,1.88
2023-11-04T08:08:23.328Z,1.73
2023-11-04T08:10:49.230Z,3.00
2023-11-04T08:13:15.264Z,1.92
2023-11-04T08:15:41.463Z,1.83
2023-11-04T08:18:07.547Z,2.90
2023-11-04T08:20:33.530Z,2.25
2023-11-04T08:22:59.832Z,2.33
2023-11-04T08:25:26.412Z,1.92
2023-11-04T08:27:52.335Z,2.50
2023-11-04T08:30:18.310Z,1.50
2023-11-04T08:32:44.222Z,2.17
2023-11-04T08:35:10.241Z,2.85
2023-11-04T08:37:36.216Z,2.22
2023-11-04T08:40:02.592Z,1.85
2023-11-04T08:42:28.663Z,1.83
2023-11-04T08:44:54.925Z,1.90
2023-11-04T08:47:21.092Z,1.73
2023-11-04T08:49:47.404Z,2.17
2023-11-04T08:52:13.415Z,1.42
2023-11-04T08:54:41.230Z,2.25
2023-11-04T08:57:07.194Z,1.38
2023-11-04T08:59:34.251Z,1.60
2023-11-04T09:02:05.865Z,2.58
2023-11-04T09:04:31.744Z,1.52
2023-11-04T09:06:57.838Z,0.73
2023-11-04T09:09:23.965Z,1.00
2023-11-04T09:11:50.160Z,1.38
2023-11-04T09:14:16.377Z,1.60
2023-11-04T09:16:42.767Z,1.48
2023-11-04T09:19:08.745Z,1.30
2023-11-04T09:21:35.802Z,1.55
2023-11-04T09:24:01.873Z,1.27
2023-11-04T09:26:27.718Z,1.30
2023-11-04T09:28:53.977Z,1.40
2023-11-04T09:31:20.079Z,1.15
2023-11-04T09:33:46.090Z,1.23
2023-11-04T09:36:12.413Z,0.85
2023-11-04T09:38:38.482Z,1.00
2023-11-04T09:41:05.595Z,1.13
2023-11-04T09:43:31.733Z,1.00
2023-11-04T09:45:58.187Z,1.50
2023-11-04T09:48:24.814Z,0.95
2023-11-04T09:50:52.044Z,1.42
2023-11-04T09:53:25.842Z,0.70
2023-11-04T09:55:53.676Z,0.90
2023-11-04T09:58:19.533Z,0.70
2023-11-04T10:00:46.947Z,0.80
2023-11-04T10:03:13.279Z,0.95
2023-11-04T10:05:39.327Z,0.70
2023-11-04T10:08:05.174Z,0.47
2023-11-04T10:10:31.186Z,0.90
2023-11-04T10:12:57.296Z,0.88
2023-11-04T10:15:23.805Z,0.90
2023-11-04T10:17:49.913Z,1.52
2023-11-04T10:20:16.543Z,0.80
2023-11-04T10:22:42.531Z,1.10
2023-11-04T10:25:11.077Z,0.55
2023-11-04T10:27:37.443Z,0.85
2023-11-04T10:30:03.912Z,0.90
2023-11-04T10:32:39.530Z,0.75
2023-11-04T10:35:11.863Z,1.23
2023-11-04T10:37:38.101Z,0.90
2023-11-04T10:40:08.184Z,0.95
2023-11-04T10:42:38.198Z,1.10
2023-11-04T10:45:10.182Z,0.60
2023-11-04T10:47:44.647Z,0.60
2023-11-04T10:50:18.118Z,0.60
2023-11-04T10:53:22.798Z,0.77
2023-11-04T10:55:59.259Z,0.93
2023-11-04T10:58:30.570Z,1.27
2023-11-04T11:00:56.820Z,0.80
2023-11-04T11:03:22.760Z,0.70
2023-11-04T11:05:48.983Z,0.73
2023-11-04T11:08:15.067Z,0.60
2023-11-04T11:10:47.597Z,0.95
2023-11-04T11:13:16.827Z,0.65
2023-11-04T11:15:43.131Z,1.52
2023-11-04T11:18:12.699Z,0.70
2023-11-04T11:20:38.749Z,0.87
2023-11-04T11:23:07.112Z,0.70
2023-11-04T11:25:38.488Z,0.77
2023-11-04T11:28:15.673Z,0.70
2023-11-04T11:30:44.715Z,1.10
2023-11-04T11:33:11.836Z,0.85
2023-11-04T11:35:57.951Z,0.95
2023-11-04T11:38:24.642Z,0.90
2023-11-04T11:40:52.885Z,0.80
2023-11-04T11:43:19.944Z,0.73
2023-11-04T11:45:48.158Z,0.90
2023-11-04T11:48:15.230Z,1.15
2023-11-04T11:50:42.042Z,0.50
2023-11-04T11:53:09.419Z,0.70
2023-11-04T11:55:36.485Z,1.02
2023-11-04T11:58:02.425Z,0.73
2023-11-04T12:00:28.282Z,0.73
2023-11-04T12:03:38.634Z,0.98
2023-11-04T12:06:05.197Z,0.35
2023-11-04T12:08:31.627Z,0.47
2023-11-04T12:10:57.905Z,0.45
2023-11-04T12:13:25.126Z,1.48
2023-11-04T12:15:51.098Z,0.73
2023-11-04T12:18:17.891Z,0.70
2023-11-04T12:20:45.114Z,1.40
2023-11-04T12:23:11.858Z,0.80
2023-11-04T12:25:38.573Z,0.60
2023-11-04T12:28:06.898Z,1.13
2023-11-04T12:30:34.473Z,0.60
2023-11-04T12:33:04.177Z,0.82
2023-11-04T12:35:30.435Z,1.57
2023-11-04T12:37:56.501Z,1.00
2023-11-04T12:40:26.837Z,0.80
2023-11-04T12:42:54.440Z,0.70
2023-11-04T12:45:22.832Z,0.60
2023-11-04T12:47:48.773Z,1.00
2023-11-04T12:50:15.611Z,0.63
2023-11-04T12:52:45.167Z,0.70
2023-11-04T12:55:11.395Z,0.38
2023-11-04T12:57:39.607Z,0.60
2023-11-04T13:00:07.391Z,0.80
2023-11-04T13:02:54.880Z,0.35
2023-11-04T13:05:21.483Z,1.20
2023-11-04T13:07:47.424Z,0.65
2023-11-04T13:10:22.716Z,0.45
2023-11-04T13:12:50.512Z,0.52
2023-11-04T13:15:16.880Z,0.70
2023-11-04T13:17:43.721Z,1.00
2023-11-04T13:20:11.013Z,0.60
2023-11-04T13:22:37.257Z,0.40
2023-11-04T13:25:04.545Z,0.90
2023-11-04T13:27:31.857Z,0.82
2023-11-04T13:29:58.030Z,0.70
2023-11-04T13:32:32.996Z,0.52
2023-11-04T13:34:58.968Z,0.80
2023-11-04T13:37:25.272Z,1.00
2023-11-04T13:39:51.248Z,0.60
2023-11-04T13:42:18.150Z,0.98
2023-11-04T13:44:44.084Z,0.65
2023-11-04T13:47:09.942Z,0.98
2023-11-04T13:49:36.076Z,0.75
2023-11-04T13:52:02.831Z,1.10
2023-11-04T13:54:29.380Z,1.10
2023-11-04T13:56:55.414Z,1.15
2023-11-04T13:59:22.476Z,0.77
2023-11-04T14:01:48.446Z,0.82
2023-11-04T14:04:14.973Z,1.60
2023-11-04T14:06:41.564Z,1.08
2023-11-04T14:09:08.125Z,1.52
2023-11-04T14:11:34.041Z,0.70
2023-11-04T14:14:00.074Z,0.45
2023-11-04T14:16:27.657Z,1.52
2023-11-04T14:18:54.737Z,1.00
2023-11-04T14:21:21.853Z,1.00
2023-11-04T14:23:47.904Z,1.27
2023-11-04T14:26:14.032Z,1.95
2023-11-04T14:28:39.958Z,1.77
2023-11-04T14:31:06.935Z,0.90
2023-11-04T14:33:32.966Z,1.27
2023-11-04T14:35:59.258Z,1.58
2023-11-04T14:38:25.356Z,1.05
2023-11-04T14:40:51.348Z,1.02
2023-11-04T14:43:17.297Z,0.63
2023-11-04T14:45:43.313Z,1.08
2023-11-04T14:48:09.444Z,0.98
2023-11-04T14:50:38.709Z,0.75
2023-11-04T14:53:05.227Z,1.58
2023-11-04T14:55:31.163Z,0.90
2023-11-04T14:58:00.302Z,0.52
2023-11-04T15:00:26.822Z,0.85
2023-11-04T15:02:58.982Z,0.85
2023-11-04T15:05:25.134Z,0.93
2023-11-04T15:07:51.234Z,0.90
2023-11-04T15:10:17.844Z,1.13
2023-11-04T15:12:47.962Z,1.00
2023-11-04T15:15:14.122Z,0.75
2023-11-04T15:17:40.639Z,1.15
2023-11-04T15:20:07.139Z,0.60
2023-11-04T15:22:32.955Z,1.10
2023-11-04T15:24:59.205Z,1.23
2023-11-04T15:27:29.189Z,0.63
2023-11-04T15:29:57.296Z,1.02
2023-11-04T15:32:39.096Z,0.88
2023-11-04T15:35:08.098Z,1.00
2023-11-04T15:37:34.719Z,1.33
2023-11-04T15:40:01.158Z,0.68
2023-11-04T15:42:27.346Z,0.98
2023-11-04T15:44:53.252Z,0.88
2023-11-04T15:47:19.800Z,1.00
2023-11-04T15:49:45.798Z,1.17
2023-11-04T15:52:12.634Z,0.60
2023-11-04T15:54:38.518Z,1.20
2023-11-04T15:57:05.502Z,1.40
2023-11-04T15:59:32.610Z,1.23
2023-11-04T16:02:06.085Z,1.35
2023-11-04T16:04:32.616Z,1.27
2023-11-04T16:06:58.648Z,1.77
2023-11-04T16:09:24.606Z,1.42
2023-11-04T16:11:50.529Z,1.33
2023-11-04T16:14:17.123Z,1.67
2023-11-04T16:16:44.308Z,1.60
2023-11-04T16:19:10.389Z,1.45
2023-11-04T16:21:36.425Z,1.70
2023-11-04T16:24:02.448Z,1.70
2023-11-04T16:26:28.300Z,1.90
2023-11-04T16:28:54.222Z,1.75
2023-11-04T16:31:24.571Z,2.53
2023-11-04T16:33:52.122Z,2.10
2023-11-04T16:36:18.306Z,1.90
2023-11-04T16:38:44.189Z,2.53
2023-11-04T16:41:10.913Z,1.88
2023-11-04T16:43:37.982Z,2.72
2023-11-04T16:46:03.933Z,2.10
2023-11-04T16:48:30.007Z,1.88
2023-11-04T16:50:56.073Z,3.33
2023-11-04T16:53:22.141Z,1.98
2023-11-04T16:55:48.157Z,2.45
2023-11-04T16:58:14.146Z,2.75
2023-11-04T17:00:40.397Z,3.53
2023-11-04T17:03:09.537Z,2.85
2023-11-04T17:05:36.142Z,2.95
2023-11-04T17:08:02.054Z,2.58
2023-11-04T17:10:28.076Z,2.35
2023-11-04T17:12:54.175Z,3.67
2023-11-04T17:15:20.168Z,2.75
2023-11-04T17:17:46.433Z,3.00
2023-11-04T17:20:12.408Z,2.90
2023-11-04T17:22:38.555Z,3.42
2023-11-04T17:25:04.646Z,3.47
2023-11-04T17:27:30.705Z,3.60
2023-11-04T17:29:56.828Z,4.10
2023-11-04T17:32:27.160Z,4.30
2023-11-04T17:34:53.590Z,2.50
2023-11-04T17:37:19.920Z,2.42
2023-11-04T17:39:47.333Z,2.65
2023-11-04T17:42:14.334Z,2.42
2023-11-04T17:44:40.249Z,2.22
2023-11-04T17:47:07.553Z,2.88
2023-11-04T17:49:39.140Z,2.10
2023-11-04T17:52:05.131Z,2.33
2023-11-04T17:54:30.971Z,2.28
2023-11-04T17:56:56.767Z,2.08
2023-11-04T17:59:22.702Z,1.83
2023-11-04T18:01:48.546Z,1.83
2023-11-04T18:04:15.072Z,1.92
2023-11-04T18:06:41.167Z,2.47
2023-11-04T18:09:08.224Z,2.05
2023-11-04T18:11:35.306Z,1.63
2023-11-04T18:14:01.271Z,1.95
2023-11-04T18:16:27.238Z,2.05
2023-11-04T18:18:53.580Z,1.50
2023-11-04T18:21:19.527Z,1.98
2023-11-04T18:23:45.483Z,1.60
2023-11-04T18:26:11.549Z,3.05
2023-11-04T18:28:37.440Z,1.98
2023-11-04T18:31:03.534Z,2.50
2023-11-04T18:33:32.780Z,2.17
2023-11-04T18:35:59.650Z,1.60
2023-11-04T18:38:26.770Z,1.88
2023-11-04T18:40:52.644Z,2.20
2023-11-04T18:43:18.622Z,1.40
2023-11-04T18:45:46.923Z,1.80
2023-11-04T18:48:13.685Z,1.35
2023-11-04T18:50:39.811Z,1.65
2023-11-04T18:53:05.666Z,2.17
2023-11-04T18:55:31.789Z,1.85
2023-11-04T18:57:58.009Z,2.08
2023-11-04T19:00:25.080Z,1.50
2023-11-04T19:02:54.363Z,1.55
2023-11-04T19:05:20.812Z,1.73
2023-11-04T19:10:28.298Z,2.00
2023-11-04T19:12:54.315Z,1.60
2023-11-04T19:15:20.577Z,1.40
2023-11-04T19:17:46.693Z,1.48
2023-11-04T19:20:13.178Z,1.85
2023-11-04T19:22:39.109Z,1.75
2023-11-04T19:25:07.437Z,2.00
2023-11-04T19:27:33.984Z,2.30
2023-11-04T19:30:00.121Z,2.10
2023-11-04T19:32:26.101Z,2.22
2023-11-04T19:34:54.688Z,1.38
2023-11-04T19:37:22.684Z,1.35
2023-11-04T19:39:48.612Z,1.50
2023-11-04T19:42:14.497Z,1.40
2023-11-04T19:44:40.367Z,1.98
2023-11-04T19:47:06.776Z,1.70
2023-11-04T19:49:33.027Z,2.20
2023-11-04T19:51:58.885Z,1.65
2023-11-04T19:54:25.022Z,1.92
2023-11-04T19:56:52.968Z,1.85
2023-11-04T19:59:18.790Z,1.48
2023-11-04T20:01:53.950Z,1.50
2023-11-04T20:04:19.933Z,1.50
2023-11-04T20:06:45.996Z,1.40
2023-11-04T20:09:11.972Z,1.25
2023-11-04T20:11:37.806Z,1.38
2023-11-04T20:14:03.813Z,1.50
2023-11-04T20:16:30.096Z,1.25
2023-11-04T20:18:55.998Z,1.90
2023-11-04T20:21:23.021Z,1.40
2023-11-04T20:23:48.925Z,1.35
2023-11-04T20:26:14.827Z,1.70
2023-11-04T20:28:40.807Z,2.03
2023-11-04T20:31:07.721Z,1.83
2023-11-04T20:33:33.733Z,1.45
2023-11-04T20:35:59.706Z,1.75
2023-11-04T20:38:25.538Z,1.40
2023-11-04T20:40:51.574Z,1.77
2023-11-04T20:43:17.637Z,1.75
2023-11-04T20:45:43.507Z,1.50
2023-11-04T20:48:09.514Z,1.38
2023-11-04T20:50:35.430Z,2.03
2023-11-04T20:53:01.407Z,1.13
2023-11-04T20:55:27.424Z,1.02
2023-11-04T20:57:53.290Z,1.60
2023-11-04T21:00:19.215Z,1.40
2023-11-04T21:02:45.351Z,0.98
2023-11-04T21:05:11.412Z,1.23
2023-11-04T21:07:37.265Z,1.40
2023-11-04T21:10:04.083Z,1.40
2023-11-04T21:12:29.999Z,1.25
2023-11-04T21:14:57.275Z,2.10
2023-11-04T21:17:23.287Z,1.10
2023-11-04T21:19:50.808Z,2.00
2023-11-04T21:22:16.757Z,1.88
2023-11-04T21:24:42.610Z,1.30
2023-11-04T21:27:08.442Z,1.80
2023-11-04T21:29:34.366Z,1.90
2023-11-04T21:32:06.883Z,1.38
2023-11-04T21:34:32.790Z,1.38
2023-11-04T21:36:59.153Z,1.65
2023-11-04T21:39:27.623Z,0.85
2023-11-04T21:41:54.845Z,1.42
2023-11-04T21:44:20.640Z,1.65
2023-11-04T21:46:46.446Z,1.25
2023-11-04T21:49:12.398Z,1.30
2023-11-04T21:51:42.745Z,1.38
2023-11-04T21:54:08.827Z,1.35
2023-11-04T21:56:35.018Z,1.20
2023-11-04T21:59:00.826Z,1.45
2023-11-04T22:01:27.325Z,1.33
2023-11-04T22:03:54.000Z,1.55
2023-11-04T22:06:20.125Z,1.45
2023-11-04T22:08:46.934Z,1.33
2023-11-04T22:11:13.013Z,1.30
2023-11-04T22:13:39.075Z,1.70
2023-11-04T22:16:06.160Z,1.77
2023-11-04T22:18:33.337Z,1.85
2023-11-04T22:20:59.195Z,1.50
2023-11-04T22:23:25.053Z,1.30
2023-11-04T22:25:52.177Z,1.52
2023-11-04T22:28:18.053Z,1.95
2023-11-04T22:30:44.149Z,1.55
2023-11-04T22:33:10.196Z,1.65
2023-11-04T22:35:36.104Z,1.38
2023-11-04T22:38:02.115Z,1.50
2023-11-04T22:40:28.027Z,1.70
2023-11-04T22:42:53.890Z,1.20
2023-11-04T22:45:19.837Z,1.33
2023-11-04T22:47:45.727Z,1.50
2023-11-04T22:50:11.609Z,1.30
2023-11-04T22:52:38.223Z,1.60
2023-11-04T22:55:04.484Z,1.30
2023-11-04T22:57:30.328Z,1.02
2023-11-04T22:59:56.344Z,1.20
2023-11-04T23:02:22.615Z,1.65
2023-11-04T23:04:48.732Z,1.48
2023-11-04T23:07:14.805Z,1.70
2023-11-04T23:09:40.734Z,1.63
2023-11-04T23:12:06.737Z,1.75
2023-11-04T23:14:32.661Z,1.20
2023-11-04T23:16:58.463Z,1.15
2023-11-04T23:19:24.295Z,1.17
2023-11-04T23:21:50.184Z,1.05
2023-11-04T23:24:16.018Z,1.45
2023-11-04T23:26:42.072Z,1.15
2023-11-04T23:29:08.887Z,1.23
2023-11-04T23:31:34.803Z,1.65
2023-11-04T23:34:00.706Z,1.33
2023-11-04T23:36:26.560Z,1.73
2023-11-04T23:38:52.577Z,1.27
2023-11-04T23:41:18.410Z,1.77
2023-11-04T23:43:44.276Z,1.52
2023-11-04T23:46:10.251Z,1.83
2023-11-04T23:48:36.297Z,1.10
2023-11-04T23:51:02.167Z,1.52
2023-11-04T23:53:28.466Z,2.22
2023-11-04T23:55:54.291Z,1.63
2023-11-04T23:58:20.114Z,1.10
